Terminal Aerodrome Forecast
Issued by NWS

Home | Current Version | Previous Version | Graphics & Text | Print | Product List | Glossary On
Versions: 1 2 3 4 5 6 7 8 9 10 11 12 13 14 15 16 17 18 19
000
FTUS43 KBIS 252300
TAFJMS
TAF
KJMS 252335Z 2600/2624 18008KT P6SM OVC012
     FM260500 24015G25KT P6SM OVC025
     FM261000 30018G27KT P6SM VCSH SCT025 BKN080
     FM261800 32015G24KT P6SM SCT250=

USA.gov is the U.S. government's official web portal to all federal, state and local government web resources and services.